sensor_id;sensor_type;location;lat;lon;timestamp;pressure;altitude;pressure_sealevel;temperature;humidity
77366;BME280;66430;50.182;11.704;2023-06-26T00:00:54;94818.00;;;21.89;33.73
77366;BME280;66430;50.182;11.704;2023-06-26T00:03:19;94814.61;;;21.58;33.46
77366;BME280;66430;50.182;11.704;2023-06-26T00:05:45;94814.58;;;21.76;34.18
77366;BME280;66430;50.182;11.704;2023-06-26T00:08:11;94811.40;;;21.74;33.54
77366;BME280;66430;50.182;11.704;2023-06-26T00:10:35;94814.09;;;21.48;34.01
77366;BME280;66430;50.182;11.704;2023-06-26T00:13:01;94816.22;;;21.69;34.07
77366;BME280;66430;50.182;11.704;2023-06-26T00:15:26;94814.74;;;21.64;33.60
77366;BME280;66430;50.182;11.704;2023-06-26T00:17:51;94814.73;;;21.60;33.61
77366;BME280;66430;50.182;11.704;2023-06-26T00:20:18;94813.82;;;21.58;34.45
77366;BME280;66430;50.182;11.704;2023-06-26T00:22:42;94813.89;;;21.58;34.27
77366;BME280;66430;50.182;11.704;2023-06-26T00:25:07;94813.78;;;21.54;34.67
77366;BME280;66430;50.182;11.704;2023-06-26T00:27:32;94811.86;;;21.48;34.15
77366;BME280;66430;50.182;11.704;2023-06-26T00:29:58;94813.41;;;21.43;34.81
77366;BME280;66430;50.182;11.704;2023-06-26T00:32:23;94813.66;;;21.35;34.90
77366;BME280;66430;50.182;11.704;2023-06-26T00:34:49;94813.88;;;21.31;34.99
77366;BME280;66430;50.182;11.704;2023-06-26T00:37:14;94817.95;;;21.29;34.88
77366;BME280;66430;50.182;11.704;2023-06-26T00:39:40;94816.13;;;21.27;34.94
77366;BME280;66430;50.182;11.704;2023-06-26T00:42:05;94813.90;;;21.24;34.80
77366;BME280;66430;50.182;11.704;2023-06-26T00:44:30;94812.60;;;21.24;34.72
77366;BME280;66430;50.182;11.704;2023-06-26T00:46:54;94815.14;;;21.46;34.85
77366;BME280;66430;50.182;11.704;2023-06-26T00:49:20;94813.08;;;21.20;34.74
77366;BME280;66430;50.182;11.704;2023-06-26T00:51:45;94810.90;;;21.17;34.97
77366;BME280;66430;50.182;11.704;2023-06-26T00:54:10;94807.92;;;21.38;34.93
77366;BME280;66430;50.182;11.704;2023-06-26T00:56:35;94806.80;;;21.12;35.10
77366;BME280;66430;50.182;11.704;2023-06-26T00:59:01;94804.98;;;21.07;35.48
77366;BME280;66430;50.182;11.704;2023-06-26T01:01:26;94800.45;;;21.03;34.90
77366;BME280;66430;50.182;11.704;2023-06-26T01:03:52;94798.87;;;20.98;35.47
77366;BME280;66430;50.182;11.704;2023-06-26T01:06:17;94795.21;;;21.15;34.99
77366;BME280;66430;50.182;11.704;2023-06-26T01:08:42;94791.54;;;20.87;35.33
77366;BME280;66430;50.182;11.704;2023-06-26T01:11:07;94786.44;;;20.86;35.01
77366;BME280;66430;50.182;11.704;2023-06-26T01:13:33;94785.60;;;21.05;35.34
77366;BME280;66430;50.182;11.704;2023-06-26T01:15:59;94784.11;;;20.78;35.37
77366;BME280;66430;50.182;11.704;2023-06-26T01:18:24;94784.03;;;21.00;34.99
77366;BME280;66430;50.182;11.704;2023-06-26T01:20:50;94782.95;;;20.74;34.81
77366;BME280;66430;50.182;11.704;2023-06-26T01:23:20;94785.32;;;20.97;35.59
77366;BME280;66430;50.182;11.704;2023-06-26T01:25:45;94787.61;;;20.94;35.69
77366;BME280;66430;50.182;11.704;2023-06-26T01:28:06;94784.76;;;21.13;35.56
77366;BME280;66430;50.182;11.704;2023-06-26T01:30:32;94782.74;;;20.62;35.64
77366;BME280;66430;50.182;11.704;2023-06-26T01:32:56;94779.20;;;20.86;35.66
77366;BME280;66430;50.182;11.704;2023-06-26T01:35:22;94776.09;;;20.60;35.77
77366;BME280;66430;50.182;11.704;2023-06-26T01:37:47;94774.67;;;21.06;35.71
77366;BME280;66430;50.182;11.704;2023-06-26T01:40:13;94773.80;;;20.80;35.54
77366;BME280;66430;50.182;11.704;2023-06-26T01:42:39;94774.15;;;21.01;35.83
77366;BME280;66430;50.182;11.704;2023-06-26T01:45:10;94770.71;;;20.51;35.96
77366;BME280;66430;50.182;11.704;2023-06-26T01:47:31;94767.85;;;20.48;35.96
77366;BME280;66430;50.182;11.704;2023-06-26T01:49:59;94764.73;;;20.92;35.91
77366;BME280;66430;50.182;11.704;2023-06-26T01:52:23;94761.89;;;20.92;35.76
77366;BME280;66430;50.182;11.704;2023-06-26T01:54:54;94754.22;;;20.67;35.59
77366;BME280;66430;50.182;11.704;2023-06-26T01:57:11;94755.50;;;20.91;35.56
77366;BME280;66430;50.182;11.704;2023-06-26T01:59:37;94755.89;;;20.89;35.71
77366;BME280;66430;50.182;11.704;2023-06-26T02:02:01;94756.55;;;20.60;35.70
77366;BME280;66430;50.182;11.704;2023-06-26T02:04:27;94757.73;;;20.34;35.58
77366;BME280;66430;50.182;11.704;2023-06-26T02:06:52;94758.35;;;20.79;35.44
77366;BME280;66430;50.182;11.704;2023-06-26T02:09:17;94760.54;;;20.77;35.42
77366;BME280;66430;50.182;11.704;2023-06-26T02:11:42;94760.30;;;20.50;34.95
77366;BME280;66430;50.182;11.704;2023-06-26T02:14:07;94757.14;;;20.45;35.23
77366;BME280;66430;50.182;11.704;2023-06-26T02:16:38;94756.21;;;20.65;35.33
77366;BME280;66430;50.182;11.704;2023-06-26T02:18:59;94754.41;;;20.86;35.57
77366;BME280;66430;50.182;11.704;2023-06-26T02:21:24;94753.17;;;20.60;35.26
77366;BME280;66430;50.182;11.704;2023-06-26T02:23:49;94750.45;;;20.09;35.37
77366;BME280;66430;50.182;11.704;2023-06-26T02:26:14;94751.98;;;20.53;35.35
77366;BME280;66430;50.182;11.704;2023-06-26T02:28:39;94751.92;;;20.51;35.24
77366;BME280;66430;50.182;11.704;2023-06-26T02:31:05;94753.73;;;20.48;35.16
77366;BME280;66430;50.182;11.704;2023-06-26T02:33:30;94753.25;;;20.20;35.07
77366;BME280;66430;50.182;11.704;2023-06-26T02:35:56;94754.70;;;20.19;35.02
77366;BME280;66430;50.182;11.704;2023-06-26T02:38:21;94754.93;;;20.20;34.95
77366;BME280;66430;50.182;11.704;2023-06-26T02:40:47;94755.67;;;20.66;35.11
77366;BME280;66430;50.182;11.704;2023-06-26T02:43:12;94754.51;;;20.39;35.10
77366;BME280;66430;50.182;11.704;2023-06-26T02:45:38;94756.83;;;20.37;35.27
77366;BME280;66430;50.182;11.704;2023-06-26T02:48:03;94756.87;;;20.38;35.02
77366;BME280;66430;50.182;11.704;2023-06-26T02:50:28;94757.60;;;20.10;35.17
77366;BME280;66430;50.182;11.704;2023-06-26T02:52:53;94755.30;;;20.32;34.95
77366;BME280;66430;50.182;11.704;2023-06-26T02:55:20;94755.87;;;20.31;34.92
77366;BME280;66430;50.182;11.704;2023-06-26T02:57:49;94751.90;;;20.32;34.89
77366;BME280;66430;50.182;11.704;2023-06-26T03:00:10;94751.27;;;20.35;34.75
77366;BME280;66430;50.182;11.704;2023-06-26T03:02:36;94749.50;;;20.39;34.46
77366;BME280;66430;50.182;11.704;2023-06-26T03:05:00;94750.08;;;20.41;34.46
77366;BME280;66430;50.182;11.704;2023-06-26T03:07:26;94747.97;;;20.19;34.41
77366;BME280;66430;50.182;11.704;2023-06-26T03:09:51;94751.71;;;20.47;34.29
77366;BME280;66430;50.182;11.704;2023-06-26T03:12:16;94751.87;;;20.71;34.41
77366;BME280;66430;50.182;11.704;2023-06-26T03:14:42;94751.27;;;20.50;34.32
77366;BME280;66430;50.182;11.704;2023-06-26T03:17:07;94748.96;;;20.29;34.14
77366;BME280;66430;50.182;11.704;2023-06-26T03:19:33;94746.50;;;20.58;34.28
77366;BME280;66430;50.182;11.704;2023-06-26T03:21:58;94747.39;;;20.36;34.29
77366;BME280;66430;50.182;11.704;2023-06-26T03:24:23;94747.25;;;20.72;34.17
77366;BME280;66430;50.182;11.704;2023-06-26T03:26:48;94748.99;;;20.84;34.02
77366;BME280;66430;50.182;11.704;2023-06-26T03:29:14;94747.53;;;20.75;33.95
77366;BME280;66430;50.182;11.704;2023-06-26T03:31:39;94747.37;;;20.67;33.81
77366;BME280;66430;50.182;11.704;2023-06-26T03:34:04;94745.43;;;21.32;33.77
77366;BME280;66430;50.182;11.704;2023-06-26T03:36:29;94744.65;;;21.29;33.55
77366;BME280;66430;50.182;11.704;2023-06-26T03:38:55;94743.54;;;21.20;33.93
77366;BME280;66430;50.182;11.704;2023-06-26T03:41:19;94744.61;;;21.16;33.90
77366;BME280;66430;50.182;11.704;2023-06-26T03:43:45;94744.27;;;21.62;33.61
77366;BME280;66430;50.182;11.704;2023-06-26T03:46:10;94741.30;;;21.78;33.60
77366;BME280;66430;50.182;11.704;2023-06-26T03:48:35;94745.55;;;22.02;33.42
77366;BME280;66430;50.182;11.704;2023-06-26T03:51:00;94744.88;;;22.23;33.10
77366;BME280;66430;50.182;11.704;2023-06-26T03:53:26;94746.67;;;22.44;33.11
77366;BME280;66430;50.182;11.704;2023-06-26T03:55:51;94744.15;;;22.60;33.07
77366;BME280;66430;50.182;11.704;2023-06-26T03:58:16;94744.63;;;22.60;32.62
77366;BME280;66430;50.182;11.704;2023-06-26T04:00:42;94741.97;;;22.56;32.52
77366;BME280;66430;50.182;11.704;2023-06-26T04:03:07;94737.42;;;23.06;32.64
77366;BME280;66430;50.182;11.704;2023-06-26T04:05:32;94737.88;;;23.07;32.91
77366;BME280;66430;50.182;11.704;2023-06-26T04:07:57;94734.93;;;22.83;33.21
77366;BME280;66430;50.182;11.704;2023-06-26T04:10:22;94734.03;;;23.47;32.98
77366;BME280;66430;50.182;11.704;2023-06-26T04:12:48;94728.60;;;23.18;32.57
77366;BME280;66430;50.182;11.704;2023-06-26T04:15:13;94729.23;;;23.26;32.19
77366;BME280;66430;50.182;11.704;2023-06-26T04:17:38;94731.21;;;23.43;31.94
77366;BME280;66430;50.182;11.704;2023-06-26T04:20:06;94730.10;;;23.37;32.49
77366;BME280;66430;50.182;11.704;2023-06-26T04:22:29;94729.62;;;23.84;32.76
77366;BME280;66430;50.182;11.704;2023-06-26T04:24:54;94734.79;;;23.93;32.12
77366;BME280;66430;50.182;11.704;2023-06-26T04:27:19;94731.95;;;23.83;31.91
77366;BME280;66430;50.182;11.704;2023-06-26T04:29:45;94731.75;;;23.88;31.21
77366;BME280;66430;50.182;11.704;2023-06-26T04:32:11;94733.75;;;24.08;31.50
77366;BME280;66430;50.182;11.704;2023-06-26T04:34:37;94734.63;;;24.34;31.36
77366;BME280;66430;50.182;11.704;2023-06-26T04:37:03;94731.94;;;24.20;31.52
77366;BME280;66430;50.182;11.704;2023-06-26T04:39:28;94729.98;;;24.44;31.34
77366;BME280;66430;50.182;11.704;2023-06-26T04:41:53;94729.66;;;24.50;30.67
77366;BME280;66430;50.182;11.704;2023-06-26T04:44:19;94725.95;;;24.88;30.17
77366;BME280;66430;50.182;11.704;2023-06-26T04:46:44;94725.38;;;24.70;30.67
77366;BME280;66430;50.182;11.704;2023-06-26T04:49:14;94724.19;;;24.68;30.48
77366;BME280;66430;50.182;11.704;2023-06-26T04:51:35;94722.87;;;24.59;30.60
77366;BME280;66430;50.182;11.704;2023-06-26T04:54:00;94719.41;;;24.87;30.46
77366;BME280;66430;50.182;11.704;2023-06-26T04:56:25;94717.12;;;24.80;30.38
77366;BME280;66430;50.182;11.704;2023-06-26T04:58:51;94718.70;;;24.86;30.03
77366;BME280;66430;50.182;11.704;2023-06-26T05:01:16;94718.12;;;24.98;30.11
77366;BME280;66430;50.182;11.704;2023-06-26T05:03:42;94720.87;;;25.08;30.02
77366;BME280;66430;50.182;11.704;2023-06-26T05:06:08;94720.20;;;25.21;29.59
77366;BME280;66430;50.182;11.704;2023-06-26T05:08:35;94722.53;;;25.41;29.32
77366;BME280;66430;50.182;11.704;2023-06-26T05:10:59;94724.07;;;25.67;29.20
77366;BME280;66430;50.182;11.704;2023-06-26T05:13:27;94722.48;;;25.66;28.81
77366;BME280;66430;50.182;11.704;2023-06-26T05:15:51;94724.25;;;25.47;29.23
77366;BME280;66430;50.182;11.704;2023-06-26T05:18:15;94723.29;;;25.89;28.90
77366;BME280;66430;50.182;11.704;2023-06-26T05:20:46;94718.52;;;25.63;28.90
77366;BME280;66430;50.182;11.704;2023-06-26T05:23:07;94718.20;;;26.22;28.77
77366;BME280;66430;50.182;11.704;2023-06-26T05:25:34;94722.13;;;25.63;28.74
77366;BME280;66430;50.182;11.704;2023-06-26T05:27:58;94718.24;;;25.77;28.61
77366;BME280;66430;50.182;11.704;2023-06-26T05:30:23;94716.78;;;26.14;28.28
77366;BME280;66430;50.182;11.704;2023-06-26T05:32:48;94720.04;;;25.95;28.66
77366;BME280;66430;50.182;11.704;2023-06-26T05:35:13;94719.43;;;25.84;28.58
77366;BME280;66430;50.182;11.704;2023-06-26T05:37:39;94720.19;;;26.29;28.90
77366;BME280;66430;50.182;11.704;2023-06-26T05:40:05;94721.10;;;26.02;28.94
77366;BME280;66430;50.182;11.704;2023-06-26T05:42:30;94717.88;;;25.94;27.82
77366;BME280;66430;50.182;11.704;2023-06-26T05:44:54;94719.96;;;26.18;28.48
77366;BME280;66430;50.182;11.704;2023-06-26T05:47:19;94719.78;;;26.25;28.10
77366;BME280;66430;50.182;11.704;2023-06-26T05:49:44;94722.91;;;26.37;28.41
77366;BME280;66430;50.182;11.704;2023-06-26T05:52:12;94724.81;;;26.40;28.41
77366;BME280;66430;50.182;11.704;2023-06-26T05:54:36;94721.65;;;26.25;27.55
77366;BME280;66430;50.182;11.704;2023-06-26T05:57:04;94721.48;;;26.50;28.04
77366;BME280;66430;50.182;11.704;2023-06-26T05:59:27;94720.52;;;26.60;27.84
77366;BME280;66430;50.182;11.704;2023-06-26T06:01:52;94719.17;;;26.38;27.82
77366;BME280;66430;50.182;11.704;2023-06-26T06:04:18;94717.33;;;26.38;27.24
77366;BME280;66430;50.182;11.704;2023-06-26T06:06:42;94716.71;;;26.33;27.92
77366;BME280;66430;50.182;11.704;2023-06-26T06:09:08;94718.34;;;26.59;27.63
77366;BME280;66430;50.182;11.704;2023-06-26T06:11:36;94716.97;;;26.72;28.07
77366;BME280;66430;50.182;11.704;2023-06-26T06:13:59;94715.18;;;26.44;28.49
77366;BME280;66430;50.182;11.704;2023-06-26T06:16:25;94716.58;;;26.75;28.19
77366;BME280;66430;50.182;11.704;2023-06-26T06:18:49;94717.30;;;26.62;28.17
77366;BME280;66430;50.182;11.704;2023-06-26T06:21:15;94715.88;;;26.46;28.21
77366;BME280;66430;50.182;11.704;2023-06-26T06:23:40;94716.93;;;27.27;27.77
77366;BME280;66430;50.182;11.704;2023-06-26T06:26:06;94718.30;;;27.09;27.46
77366;BME280;66430;50.182;11.704;2023-06-26T06:28:31;94714.80;;;27.31;27.66
77366;BME280;66430;50.182;11.704;2023-06-26T06:30:57;94715.12;;;27.21;27.85
77366;BME280;66430;50.182;11.704;2023-06-26T06:33:22;94713.68;;;27.05;27.04
77366;BME280;66430;50.182;11.704;2023-06-26T06:35:47;94718.10;;;27.16;27.76
77366;BME280;66430;50.182;11.704;2023-06-26T06:38:12;94725.83;;;27.03;28.37
77366;BME280;66430;50.182;11.704;2023-06-26T06:40:39;94724.12;;;27.25;28.05
77366;BME280;66430;50.182;11.704;2023-06-26T06:43:03;94721.18;;;27.30;28.73
77366;BME280;66430;50.182;11.704;2023-06-26T06:45:29;94718.84;;;27.44;28.11
77366;BME280;66430;50.182;11.704;2023-06-26T06:47:54;94718.20;;;27.45;27.66
77366;BME280;66430;50.182;11.704;2023-06-26T06:50:19;94719.17;;;27.08;28.00
77366;BME280;66430;50.182;11.704;2023-06-26T06:52:44;94719.74;;;27.16;25.88
77366;BME280;66430;50.182;11.704;2023-06-26T06:55:09;94718.58;;;27.69;26.21
77366;BME280;66430;50.182;11.704;2023-06-26T06:57:36;94716.91;;;27.53;26.48
77366;BME280;66430;50.182;11.704;2023-06-26T07:00:01;94712.73;;;27.78;26.77
77366;BME280;66430;50.182;11.704;2023-06-26T07:02:26;94713.76;;;27.40;25.71
77366;BME280;66430;50.182;11.704;2023-06-26T07:04:52;94716.79;;;27.29;27.15
77366;BME280;66430;50.182;11.704;2023-06-26T07:07:19;94711.51;;;27.33;27.00
77366;BME280;66430;50.182;11.704;2023-06-26T07:09:42;94709.95;;;27.63;25.89
77366;BME280;66430;50.182;11.704;2023-06-26T07:12:07;94708.18;;;27.60;27.20
77366;BME280;66430;50.182;11.704;2023-06-26T07:14:32;94706.36;;;27.47;26.87
77366;BME280;66430;50.182;11.704;2023-06-26T07:16:58;94703.80;;;27.51;26.71
77366;BME280;66430;50.182;11.704;2023-06-26T07:19:23;94708.08;;;27.82;25.53
77366;BME280;66430;50.182;11.704;2023-06-26T07:21:48;94707.11;;;27.14;26.77
77366;BME280;66430;50.182;11.704;2023-06-26T07:24:15;94708.90;;;27.99;27.06
77366;BME280;66430;50.182;11.704;2023-06-26T07:26:39;94704.71;;;27.64;27.12
77366;BME280;66430;50.182;11.704;2023-06-26T07:29:04;94704.53;;;27.64;24.79
77366;BME280;66430;50.182;11.704;2023-06-26T07:31:29;94702.01;;;27.58;26.56
77366;BME280;66430;50.182;11.704;2023-06-26T07:33:56;94703.80;;;27.70;26.27
77366;BME280;66430;50.182;11.704;2023-06-26T07:36:20;94705.65;;;28.24;26.79
77366;BME280;66430;50.182;11.704;2023-06-26T07:38:46;94702.31;;;27.99;26.34
77366;BME280;66430;50.182;11.704;2023-06-26T07:41:11;94698.06;;;27.86;27.04
77366;BME280;66430;50.182;11.704;2023-06-26T07:43:36;94697.09;;;28.33;26.38
77366;BME280;66430;50.182;11.704;2023-06-26T07:46:01;94693.14;;;28.27;24.93
77366;BME280;66430;50.182;11.704;2023-06-26T07:48:27;94693.73;;;28.25;26.64
77366;BME280;66430;50.182;11.704;2023-06-26T07:50:53;94693.85;;;28.40;24.93
77366;BME280;66430;50.182;11.704;2023-06-26T07:53:18;94695.28;;;28.52;26.87
77366;BME280;66430;50.182;11.704;2023-06-26T07:55:44;94693.89;;;28.74;26.13
77366;BME280;66430;50.182;11.704;2023-06-26T07:58:09;94694.61;;;28.72;25.82
77366;BME280;66430;50.182;11.704;2023-06-26T08:00:34;94692.16;;;28.73;25.64
77366;BME280;66430;50.182;11.704;2023-06-26T08:03:00;94691.28;;;28.93;26.32
77366;BME280;66430;50.182;11.704;2023-06-26T08:05:26;94689.57;;;28.92;25.28
77366;BME280;66430;50.182;11.704;2023-06-26T08:07:50;94689.54;;;28.69;25.68
77366;BME280;66430;50.182;11.704;2023-06-26T08:10:15;94689.86;;;28.82;25.51
77366;BME280;66430;50.182;11.704;2023-06-26T08:12:42;94690.74;;;29.14;25.43
77366;BME280;66430;50.182;11.704;2023-06-26T08:15:07;94689.55;;;28.93;26.11
77366;BME280;66430;50.182;11.704;2023-06-26T08:17:32;94685.63;;;28.82;26.61
77366;BME280;66430;50.182;11.704;2023-06-26T08:19:57;94688.75;;;28.73;25.43
77366;BME280;66430;50.182;11.704;2023-06-26T08:22:24;94686.97;;;28.91;25.31
77366;BME280;66430;50.182;11.704;2023-06-26T08:24:48;94688.88;;;29.20;24.82
77366;BME280;66430;50.182;11.704;2023-06-26T08:27:14;94688.09;;;29.03;25.21
77366;BME280;66430;50.182;11.704;2023-06-26T08:29:40;94689.82;;;29.21;24.83
77366;BME280;66430;50.182;11.704;2023-06-26T08:32:06;94695.06;;;29.12;25.38
77366;BME280;66430;50.182;11.704;2023-06-26T08:34:30;94689.30;;;29.10;24.87
77366;BME280;66430;50.182;11.704;2023-06-26T08:36:55;94689.59;;;29.40;25.06
77366;BME280;66430;50.182;11.704;2023-06-26T08:39:21;94686.21;;;29.25;25.84
77366;BME280;66430;50.182;11.704;2023-06-26T08:41:47;94682.76;;;29.28;24.98
77366;BME280;66430;50.182;11.704;2023-06-26T08:44:12;94683.97;;;29.55;24.45
77366;BME280;66430;50.182;11.704;2023-06-26T08:46:37;94679.85;;;29.56;24.55
77366;BME280;66430;50.182;11.704;2023-06-26T08:49:11;94681.20;;;29.53;24.66
77366;BME280;66430;50.182;11.704;2023-06-26T08:51:30;94679.67;;;29.51;25.33
77366;BME280;66430;50.182;11.704;2023-06-26T08:53:57;94680.16;;;29.68;23.37
77366;BME280;66430;50.182;11.704;2023-06-26T08:56:27;94678.93;;;29.74;22.24
77366;BME280;66430;50.182;11.704;2023-06-26T08:58:44;94680.80;;;29.40;24.97
77366;BME280;66430;50.182;11.704;2023-06-26T09:01:11;94679.90;;;29.74;23.87
77366;BME280;66430;50.182;11.704;2023-06-26T09:03:35;94681.56;;;29.78;24.56
77366;BME280;66430;50.182;11.704;2023-06-26T09:06:00;94679.35;;;29.55;23.85
77366;BME280;66430;50.182;11.704;2023-06-26T09:08:26;94681.77;;;29.11;22.21
77366;BME280;66430;50.182;11.704;2023-06-26T09:10:52;94679.67;;;29.59;22.33
77366;BME280;66430;50.182;11.704;2023-06-26T09:13:16;94678.19;;;29.15;22.25
77366;BME280;66430;50.182;11.704;2023-06-26T09:15:43;94679.50;;;29.73;24.21
77366;BME280;66430;50.182;11.704;2023-06-26T09:18:07;94678.04;;;29.86;23.53
77366;BME280;66430;50.182;11.704;2023-06-26T09:20:33;94676.88;;;29.82;24.94
77366;BME280;66430;50.182;11.704;2023-06-26T09:22:57;94674.54;;;30.08;24.32
77366;BME280;66430;50.182;11.704;2023-06-26T09:25:25;94673.53;;;30.04;24.62
77366;BME280;66430;50.182;11.704;2023-06-26T09:27:48;94675.45;;;29.79;23.51
77366;BME280;66430;50.182;11.704;2023-06-26T09:30:17;94677.32;;;30.35;23.51
77366;BME280;66430;50.182;11.704;2023-06-26T09:32:40;94676.48;;;30.35;24.18
77366;BME280;66430;50.182;11.704;2023-06-26T09:35:05;94671.91;;;30.21;24.05
77366;BME280;66430;50.182;11.704;2023-06-26T09:37:31;94670.53;;;30.47;25.13
77366;BME280;66430;50.182;11.704;2023-06-26T09:39:55;94668.53;;;30.19;25.44
77366;BME280;66430;50.182;11.704;2023-06-26T09:42:21;94669.60;;;30.23;23.50
77366;BME280;66430;50.182;11.704;2023-06-26T09:44:46;94670.67;;;30.51;24.13
77366;BME280;66430;50.182;11.704;2023-06-26T09:47:11;94668.75;;;30.73;24.20
77366;BME280;66430;50.182;11.704;2023-06-26T09:49:41;94674.80;;;30.85;23.93
77366;BME280;66430;50.182;11.704;2023-06-26T09:52:03;94668.57;;;30.53;24.16
77366;BME280;66430;50.182;11.704;2023-06-26T09:54:28;94665.96;;;30.79;22.99
77366;BME280;66430;50.182;11.704;2023-06-26T09:56:55;94670.52;;;30.68;24.56
77366;BME280;66430;50.182;11.704;2023-06-26T09:59:19;94667.50;;;30.78;23.00
77366;BME280;66430;50.182;11.704;2023-06-26T10:01:46;94663.25;;;31.07;23.35
77366;BME280;66430;50.182;11.704;2023-06-26T10:04:10;94665.29;;;30.89;23.24
77366;BME280;66430;50.182;11.704;2023-06-26T10:06:37;94668.79;;;31.08;23.36
77366;BME280;66430;50.182;11.704;2023-06-26T10:09:03;94663.12;;;31.29;23.05
77366;BME280;66430;50.182;11.704;2023-06-26T10:11:29;94663.99;;;31.35;23.67
77366;BME280;66430;50.182;11.704;2023-06-26T10:13:52;94662.57;;;31.11;24.01
77366;BME280;66430;50.182;11.704;2023-06-26T10:16:21;94657.64;;;31.13;23.44
77366;BME280;66430;50.182;11.704;2023-06-26T10:18:44;94656.58;;;31.30;22.18
77366;BME280;66430;50.182;11.704;2023-06-26T10:21:08;94652.99;;;31.00;21.25
77366;BME280;66430;50.182;11.704;2023-06-26T10:23:34;94646.83;;;31.11;19.97
77366;BME280;66430;50.182;11.704;2023-06-26T10:26:00;94645.03;;;30.71;21.64
77366;BME280;66430;50.182;11.704;2023-06-26T10:28:26;94645.17;;;30.89;22.42
77366;BME280;66430;50.182;11.704;2023-06-26T10:30:51;94644.42;;;31.11;22.72
77366;BME280;66430;50.182;11.704;2023-06-26T10:33:15;94644.52;;;31.46;22.13
77366;BME280;66430;50.182;11.704;2023-06-26T10:35:43;94640.68;;;31.22;21.57
77366;BME280;66430;50.182;11.704;2023-06-26T10:38:06;94639.31;;;31.55;22.51
77366;BME280;66430;50.182;11.704;2023-06-26T10:40:41;94636.79;;;32.00;23.05
77366;BME280;66430;50.182;11.704;2023-06-26T10:43:05;94635.51;;;31.78;21.48
77366;BME280;66430;50.182;11.704;2023-06-26T10:45:28;94630.62;;;31.54;21.73
77366;BME280;66430;50.182;11.704;2023-06-26T10:47:48;94636.27;;;31.31;21.65
77366;BME280;66430;50.182;11.704;2023-06-26T10:50:19;94632.63;;;31.77;21.09
77366;BME280;66430;50.182;11.704;2023-06-26T10:52:38;94631.66;;;31.44;19.70
77366;BME280;66430;50.182;11.704;2023-06-26T10:55:03;94628.18;;;31.29;17.76
77366;BME280;66430;50.182;11.704;2023-06-26T10:57:28;94623.99;;;31.94;18.96
77366;BME280;66430;50.182;11.704;2023-06-26T11:02:19;94618.87;;;31.98;20.17
77366;BME280;66430;50.182;11.704;2023-06-26T11:04:46;94613.73;;;31.73;20.12
77366;BME280;66430;50.182;11.704;2023-06-26T11:07:19;94611.35;;;31.96;20.28
77366;BME280;66430;50.182;11.704;2023-06-26T11:12:04;94609.52;;;31.95;19.84
77366;BME280;66430;50.182;11.704;2023-06-26T11:14:38;94607.56;;;31.61;19.30
77366;BME280;66430;50.182;11.704;2023-06-26T11:16:53;94608.28;;;31.69;21.03
77366;BME280;66430;50.182;11.704;2023-06-26T11:19:18;94605.94;;;31.56;19.19
77366;BME280;66430;50.182;11.704;2023-06-26T11:21:43;94610.04;;;31.36;19.21
77366;BME280;66430;50.182;11.704;2023-06-26T11:24:09;94609.71;;;31.91;20.53
77366;BME280;66430;50.182;11.704;2023-06-26T11:26:38;94610.21;;;32.01;20.07
77366;BME280;66430;50.182;11.704;2023-06-26T11:28:58;94603.37;;;32.11;18.62
77366;BME280;66430;50.182;11.704;2023-06-26T11:31:26;94607.82;;;32.20;20.12
77366;BME280;66430;50.182;11.704;2023-06-26T11:33:49;94604.78;;;32.20;19.84
77366;BME280;66430;50.182;11.704;2023-06-26T11:36:15;94602.28;;;32.24;19.09
77366;BME280;66430;50.182;11.704;2023-06-26T11:38:40;94597.22;;;32.42;18.97
77366;BME280;66430;50.182;11.704;2023-06-26T11:41:06;94596.08;;;32.44;19.67
77366;BME280;66430;50.182;11.704;2023-06-26T11:43:31;94594.14;;;32.62;19.89
77366;BME280;66430;50.182;11.704;2023-06-26T11:45:57;94593.37;;;32.52;19.12
77366;BME280;66430;50.182;11.704;2023-06-26T11:48:22;94592.37;;;32.09;21.33
77366;BME280;66430;50.182;11.704;2023-06-26T11:50:51;94594.84;;;32.36;18.87
77366;BME280;66430;50.182;11.704;2023-06-26T11:53:16;94588.87;;;32.30;17.32
77366;BME280;66430;50.182;11.704;2023-06-26T11:55:42;94589.76;;;32.18;19.11
77366;BME280;66430;50.182;11.704;2023-06-26T11:58:05;94591.92;;;32.22;18.40
77366;BME280;66430;50.182;11.704;2023-06-26T12:00:35;94589.04;;;31.92;19.39
77366;BME280;66430;50.182;11.704;2023-06-26T12:02:55;94584.05;;;31.93;19.21
77366;BME280;66430;50.182;11.704;2023-06-26T12:05:21;94585.40;;;32.07;19.16
77366;BME280;66430;50.182;11.704;2023-06-26T12:07:48;94589.96;;;32.29;21.22
77366;BME280;66430;50.182;11.704;2023-06-26T12:10:12;94593.24;;;32.41;20.35
77366;BME280;66430;50.182;11.704;2023-06-26T12:12:38;94593.05;;;32.40;20.38
77366;BME280;66430;50.182;11.704;2023-06-26T12:15:02;94589.13;;;32.05;19.77
77366;BME280;66430;50.182;11.704;2023-06-26T12:17:33;94590.97;;;32.46;19.76
77366;BME280;66430;50.182;11.704;2023-06-26T12:19:53;94589.83;;;31.88;19.00
77366;BME280;66430;50.182;11.704;2023-06-26T12:22:19;94587.01;;;32.17;19.73
77366;BME280;66430;50.182;11.704;2023-06-26T12:24:44;94588.51;;;31.72;20.33
77366;BME280;66430;50.182;11.704;2023-06-26T12:27:10;94582.96;;;32.09;19.13
77366;BME280;66430;50.182;11.704;2023-06-26T12:29:35;94577.35;;;32.16;19.50
77366;BME280;66430;50.182;11.704;2023-06-26T12:32:01;94583.90;;;31.68;19.53
77366;BME280;66430;50.182;11.704;2023-06-26T12:34:27;94581.95;;;31.91;18.59
77366;BME280;66430;50.182;11.704;2023-06-26T12:36:51;94585.24;;;31.71;18.57
77366;BME280;66430;50.182;11.704;2023-06-26T12:39:17;94586.11;;;31.94;20.40
77366;BME280;66430;50.182;11.704;2023-06-26T12:41:46;94581.40;;;32.07;19.17
77366;BME280;66430;50.182;11.704;2023-06-26T12:44:18;94580.89;;;31.47;19.21